sensor_id;sensor_type;location;lat;lon;timestamp;P1;durP1;ratioP1;P2;durP2;ratioP2
10100;SDS011;5090;51.258;4.436;2023-07-29T00:00:44;4.55;;;2.03;;
10100;SDS011;5090;51.258;4.436;2023-07-29T00:03:12;4.20;;;1.90;;
10100;SDS011;5090;51.258;4.436;2023-07-29T00:05:40;6.72;;;2.28;;
10100;SDS011;5090;51.258;4.436;2023-07-29T00:08:08;7.75;;;2.80;;
10100;SDS011;5090;51.258;4.436;2023-07-29T00:10:37;8.07;;;2.85;;
10100;SDS011;5090;51.258;4.436;2023-07-29T00:13:05;10.43;;;4.37;;
10100;SDS011;5090;51.258;4.436;2023-07-29T00:15:33;9.75;;;3.60;;
10100;SDS011;5090;51.258;4.436;2023-07-29T00:18:01;10.98;;;3.85;;
10100;SDS011;5090;51.258;4.436;2023-07-29T00:20:29;9.15;;;3.90;;
10100;SDS011;5090;51.258;4.436;2023-07-29T00:22:57;4.57;;;3.05;;
10100;SDS011;5090;51.258;4.436;2023-07-29T00:25:26;6.22;;;3.08;;
10100;SDS011;5090;51.258;4.436;2023-07-29T00:27:55;4.12;;;2.75;;
10100;SDS011;5090;51.258;4.436;2023-07-29T00:30:24;4.20;;;2.78;;
10100;SDS011;5090;51.258;4.436;2023-07-29T00:32:52;5.72;;;2.72;;
10100;SDS011;5090;51.258;4.436;2023-07-29T00:35:20;3.85;;;2.35;;
10100;SDS011;5090;51.258;4.436;2023-07-29T00:37:48;2.83;;;2.35;;
10100;SDS011;5090;51.258;4.436;2023-07-29T00:40:20;3.65;;;2.47;;
10100;SDS011;5090;51.258;4.436;2023-07-29T00:42:48;5.10;;;2.47;;
10100;SDS011;5090;51.258;4.436;2023-07-29T00:45:16;6.97;;;2.62;;
10100;SDS011;5090;51.258;4.436;2023-07-29T00:47:44;5.57;;;2.87;;
10100;SDS011;5090;51.258;4.436;2023-07-29T00:50:12;5.32;;;3.08;;
10100;SDS011;5090;51.258;4.436;2023-07-29T00:52:40;5.07;;;3.12;;
10100;SDS011;5090;51.258;4.436;2023-07-29T00:55:08;4.50;;;2.87;;
10100;SDS011;5090;51.258;4.436;2023-07-29T00:57:37;5.70;;;3.03;;
10100;SDS011;5090;51.258;4.436;2023-07-29T01:00:05;5.07;;;2.95;;
10100;SDS011;5090;51.258;4.436;2023-07-29T01:02:34;3.97;;;3.08;;
10100;SDS011;5090;51.258;4.436;2023-07-29T01:05:02;4.40;;;3.50;;
10100;SDS011;5090;51.258;4.436;2023-07-29T01:07:34;8.57;;;4.07;;
10100;SDS011;5090;51.258;4.436;2023-07-29T01:10:03;5.32;;;3.65;;
10100;SDS011;5090;51.258;4.436;2023-07-29T01:12:36;4.32;;;2.92;;
10100;SDS011;5090;51.258;4.436;2023-07-29T01:15:24;5.12;;;2.97;;
10100;SDS011;5090;51.258;4.436;2023-07-29T01:17:53;4.30;;;2.55;;
10100;SDS011;5090;51.258;4.436;2023-07-29T01:20:20;6.90;;;2.62;;
10100;SDS011;5090;51.258;4.436;2023-07-29T01:22:48;4.72;;;2.15;;
10100;SDS011;5090;51.258;4.436;2023-07-29T01:25:17;2.95;;;2.03;;
10100;SDS011;5090;51.258;4.436;2023-07-29T01:27:45;3.15;;;2.00;;
10100;SDS011;5090;51.258;4.436;2023-07-29T01:30:13;2.37;;;1.80;;
10100;SDS011;5090;51.258;4.436;2023-07-29T01:32:48;3.00;;;2.05;;
10100;SDS011;5090;51.258;4.436;2023-07-29T01:35:18;6.53;;;2.08;;
10100;SDS011;5090;51.258;4.436;2023-07-29T01:37:44;2.20;;;1.62;;
10100;SDS011;5090;51.258;4.436;2023-07-29T01:40:11;1.98;;;1.67;;
10100;SDS011;5090;51.258;4.436;2023-07-29T01:42:40;2.30;;;1.52;;
10100;SDS011;5090;51.258;4.436;2023-07-29T01:45:08;5.45;;;1.92;;
10100;SDS011;5090;51.258;4.436;2023-07-29T01:47:36;1.87;;;1.50;;
10100;SDS011;5090;51.258;4.436;2023-07-29T01:50:04;2.75;;;1.50;;
10100;SDS011;5090;51.258;4.436;2023-07-29T01:52:33;2.83;;;1.90;;
10100;SDS011;5090;51.258;4.436;2023-07-29T01:55:01;3.28;;;1.67;;
10100;SDS011;5090;51.258;4.436;2023-07-29T01:57:29;2.87;;;2.22;;
10100;SDS011;5090;51.258;4.436;2023-07-29T01:59:58;2.37;;;1.77;;
10100;SDS011;5090;51.258;4.436;2023-07-29T02:02:26;2.27;;;1.90;;
10100;SDS011;5090;51.258;4.436;2023-07-29T02:04:54;3.10;;;1.73;;
10100;SDS011;5090;51.258;4.436;2023-07-29T02:07:22;3.57;;;2.07;;
10100;SDS011;5090;51.258;4.436;2023-07-29T02:09:50;3.97;;;1.80;;
10100;SDS011;5090;51.258;4.436;2023-07-29T02:12:18;2.30;;;1.58;;
10100;SDS011;5090;51.258;4.436;2023-07-29T02:14:47;3.33;;;1.57;;
10100;SDS011;5090;51.258;4.436;2023-07-29T02:17:15;4.10;;;1.63;;
10100;SDS011;5090;51.258;4.436;2023-07-29T02:19:43;3.50;;;2.20;;
10100;SDS011;5090;51.258;4.436;2023-07-29T02:22:15;1.73;;;1.50;;
10100;SDS011;5090;51.258;4.436;2023-07-29T02:24:43;2.35;;;2.00;;
10100;SDS011;5090;51.258;4.436;2023-07-29T02:27:11;3.47;;;1.87;;
10100;SDS011;5090;51.258;4.436;2023-07-29T02:29:39;2.28;;;1.65;;
10100;SDS011;5090;51.258;4.436;2023-07-29T02:32:07;3.80;;;2.22;;
10100;SDS011;5090;51.258;4.436;2023-07-29T02:34:35;2.12;;;1.90;;
10100;SDS011;5090;51.258;4.436;2023-07-29T02:37:03;2.12;;;1.70;;
10100;SDS011;5090;51.258;4.436;2023-07-29T02:39:32;1.70;;;1.60;;
10100;SDS011;5090;51.258;4.436;2023-07-29T02:42:00;2.27;;;1.50;;
10100;SDS011;5090;51.258;4.436;2023-07-29T02:44:28;3.58;;;1.98;;
10100;SDS011;5090;51.258;4.436;2023-07-29T02:46:56;2.75;;;1.85;;
10100;SDS011;5090;51.258;4.436;2023-07-29T02:49:24;2.92;;;2.10;;
10100;SDS011;5090;51.258;4.436;2023-07-29T02:51:53;6.60;;;2.20;;
10100;SDS011;5090;51.258;4.436;2023-07-29T02:54:21;2.60;;;2.10;;
10100;SDS011;5090;51.258;4.436;2023-07-29T02:56:50;4.10;;;2.03;;
10100;SDS011;5090;51.258;4.436;2023-07-29T02:59:17;2.83;;;2.08;;
10100;SDS011;5090;51.258;4.436;2023-07-29T03:01:45;2.30;;;1.70;;
10100;SDS011;5090;51.258;4.436;2023-07-29T03:04:14;2.72;;;2.10;;
10100;SDS011;5090;51.258;4.436;2023-07-29T03:06:42;2.20;;;2.00;;
10100;SDS011;5090;51.258;4.436;2023-07-29T03:09:10;3.33;;;1.57;;
10100;SDS011;5090;51.258;4.436;2023-07-29T03:11:38;5.47;;;1.70;;
10100;SDS011;5090;51.258;4.436;2023-07-29T03:14:07;3.93;;;1.80;;
10100;SDS011;5090;51.258;4.436;2023-07-29T03:16:35;1.93;;;1.60;;
10100;SDS011;5090;51.258;4.436;2023-07-29T03:19:03;3.13;;;1.90;;
10100;SDS011;5090;51.258;4.436;2023-07-29T03:21:31;2.80;;;1.90;;
10100;SDS011;5090;51.258;4.436;2023-07-29T03:24:00;3.53;;;2.30;;
10100;SDS011;5090;51.258;4.436;2023-07-29T03:26:28;4.57;;;2.65;;
10100;SDS011;5090;51.258;4.436;2023-07-29T03:28:56;4.63;;;2.10;;
10100;SDS011;5090;51.258;4.436;2023-07-29T03:31:24;2.20;;;1.83;;
10100;SDS011;5090;51.258;4.436;2023-07-29T03:33:53;4.83;;;2.33;;
10100;SDS011;5090;51.258;4.436;2023-07-29T03:36:21;3.73;;;1.97;;
10100;SDS011;5090;51.258;4.436;2023-07-29T03:38:49;4.00;;;2.00;;
10100;SDS011;5090;51.258;4.436;2023-07-29T03:41:17;2.57;;;1.67;;
10100;SDS011;5090;51.258;4.436;2023-07-29T03:43:45;2.17;;;1.70;;
10100;SDS011;5090;51.258;4.436;2023-07-29T03:46:14;4.40;;;2.10;;
10100;SDS011;5090;51.258;4.436;2023-07-29T03:48:42;3.83;;;2.17;;
10100;SDS011;5090;51.258;4.436;2023-07-29T03:51:10;4.43;;;1.70;;
10100;SDS011;5090;51.258;4.436;2023-07-29T03:53:38;1.53;;;1.43;;
10100;SDS011;5090;51.258;4.436;2023-07-29T03:56:07;4.67;;;2.07;;
10100;SDS011;5090;51.258;4.436;2023-07-29T03:58:35;2.33;;;2.10;;
10100;SDS011;5090;51.258;4.436;2023-07-29T04:01:03;4.17;;;2.20;;
10100;SDS011;5090;51.258;4.436;2023-07-29T04:03:32;3.10;;;1.97;;
10100;SDS011;5090;51.258;4.436;2023-07-29T04:05:59;3.00;;;1.80;;
10100;SDS011;5090;51.258;4.436;2023-07-29T04:08:28;6.00;;;2.00;;
10100;SDS011;5090;51.258;4.436;2023-07-29T04:10:56;3.43;;;2.00;;
10100;SDS011;5090;51.258;4.436;2023-07-29T04:13:24;4.17;;;2.23;;
10100;SDS011;5090;51.258;4.436;2023-07-29T04:15:52;2.97;;;2.40;;
10100;SDS011;5090;51.258;4.436;2023-07-29T04:18:20;3.97;;;2.30;;
10100;SDS011;5090;51.258;4.436;2023-07-29T04:20:49;2.50;;;2.20;;
10100;SDS011;5090;51.258;4.436;2023-07-29T04:23:17;3.97;;;2.27;;
10100;SDS011;5090;51.258;4.436;2023-07-29T04:25:45;3.93;;;3.10;;
10100;SDS011;5090;51.258;4.436;2023-07-29T04:28:13;4.15;;;1.87;;
10100;SDS011;5090;51.258;4.436;2023-07-29T04:30:41;2.60;;;1.90;;
10100;SDS011;5090;51.258;4.436;2023-07-29T04:33:11;1.93;;;1.73;;
10100;SDS011;5090;51.258;4.436;2023-07-29T04:35:39;3.73;;;2.17;;
10100;SDS011;5090;51.258;4.436;2023-07-29T04:38:07;3.53;;;1.70;;
10100;SDS011;5090;51.258;4.436;2023-07-29T04:40:35;2.17;;;1.50;;
10100;SDS011;5090;51.258;4.436;2023-07-29T04:43:04;5.17;;;2.33;;
10100;SDS011;5090;51.258;4.436;2023-07-29T04:45:32;2.80;;;1.60;;
10100;SDS011;5090;51.258;4.436;2023-07-29T04:48:00;3.40;;;2.10;;
10100;SDS011;5090;51.258;4.436;2023-07-29T04:50:28;3.37;;;1.70;;
10100;SDS011;5090;51.258;4.436;2023-07-29T04:52:56;3.00;;;1.80;;
10100;SDS011;5090;51.258;4.436;2023-07-29T04:55:25;4.80;;;2.27;;
10100;SDS011;5090;51.258;4.436;2023-07-29T04:57:53;2.03;;;1.75;;
10100;SDS011;5090;51.258;4.436;2023-07-29T05:00:21;2.67;;;1.90;;
10100;SDS011;5090;51.258;4.436;2023-07-29T05:02:50;2.37;;;1.87;;
10100;SDS011;5090;51.258;4.436;2023-07-29T05:05:18;2.57;;;1.97;;
10100;SDS011;5090;51.258;4.436;2023-07-29T05:07:46;3.80;;;1.90;;
10100;SDS011;5090;51.258;4.436;2023-07-29T05:10:14;2.87;;;1.70;;
10100;SDS011;5090;51.258;4.436;2023-07-29T05:12:42;3.28;;;1.90;;
10100;SDS011;5090;51.258;4.436;2023-07-29T05:15:10;4.50;;;2.20;;
10100;SDS011;5090;51.258;4.436;2023-07-29T05:17:39;3.40;;;1.60;;
10100;SDS011;5090;51.258;4.436;2023-07-29T05:20:07;3.07;;;1.80;;
10100;SDS011;5090;51.258;4.436;2023-07-29T05:22:36;3.87;;;2.00;;
10100;SDS011;5090;51.258;4.436;2023-07-29T05:25:04;1.92;;;1.77;;
10100;SDS011;5090;51.258;4.436;2023-07-29T05:27:33;2.55;;;1.55;;
10100;SDS011;5090;51.258;4.436;2023-07-29T05:30:01;2.12;;;1.35;;
10100;SDS011;5090;51.258;4.436;2023-07-29T05:32:29;2.90;;;1.73;;
10100;SDS011;5090;51.258;4.436;2023-07-29T05:34:58;4.75;;;1.95;;
10100;SDS011;5090;51.258;4.436;2023-07-29T05:37:26;4.62;;;1.37;;
10100;SDS011;5090;51.258;4.436;2023-07-29T05:39:54;1.67;;;1.50;;
10100;SDS011;5090;51.258;4.436;2023-07-29T05:42:22;2.53;;;1.62;;
10100;SDS011;5090;51.258;4.436;2023-07-29T05:44:50;2.25;;;1.60;;
10100;SDS011;5090;51.258;4.436;2023-07-29T05:47:19;1.70;;;1.50;;
10100;SDS011;5090;51.258;4.436;2023-07-29T05:49:47;3.10;;;1.58;;
10100;SDS011;5090;51.258;4.436;2023-07-29T05:52:15;1.65;;;1.40;;
10100;SDS011;5090;51.258;4.436;2023-07-29T05:54:43;2.75;;;1.30;;
10100;SDS011;5090;51.258;4.436;2023-07-29T05:57:12;2.12;;;1.55;;
10100;SDS011;5090;51.258;4.436;2023-07-29T05:59:40;2.03;;;1.30;;
10100;SDS011;5090;51.258;4.436;2023-07-29T06:02:08;1.85;;;1.40;;
10100;SDS011;5090;51.258;4.436;2023-07-29T06:04:36;2.80;;;1.40;;
10100;SDS011;5090;51.258;4.436;2023-07-29T06:07:04;1.70;;;1.17;;
10100;SDS011;5090;51.258;4.436;2023-07-29T06:09:33;1.62;;;1.42;;
10100;SDS011;5090;51.258;4.436;2023-07-29T06:12:01;1.83;;;1.40;;
10100;SDS011;5090;51.258;4.436;2023-07-29T06:14:29;4.15;;;1.20;;
10100;SDS011;5090;51.258;4.436;2023-07-29T06:16:57;1.17;;;0.90;;
10100;SDS011;5090;51.258;4.436;2023-07-29T06:19:25;1.75;;;1.00;;
10100;SDS011;5090;51.258;4.436;2023-07-29T06:21:55;1.55;;;1.12;;
10100;SDS011;5090;51.258;4.436;2023-07-29T06:24:22;2.75;;;1.10;;
10100;SDS011;5090;51.258;4.436;2023-07-29T06:26:50;3.45;;;1.10;;
10100;SDS011;5090;51.258;4.436;2023-07-29T06:29:18;1.15;;;0.90;;
10100;SDS011;5090;51.258;4.436;2023-07-29T06:31:47;2.25;;;0.90;;
10100;SDS011;5090;51.258;4.436;2023-07-29T06:34:15;1.73;;;1.20;;
10100;SDS011;5090;51.258;4.436;2023-07-29T06:36:44;2.95;;;1.10;;
10100;SDS011;5090;51.258;4.436;2023-07-29T06:39:11;1.95;;;1.00;;
10100;SDS011;5090;51.258;4.436;2023-07-29T06:41:40;4.07;;;1.50;;
10100;SDS011;5090;51.258;4.436;2023-07-29T06:44:08;1.90;;;1.00;;
10100;SDS011;5090;51.258;4.436;2023-07-29T06:46:36;1.60;;;0.85;;
10100;SDS011;5090;51.258;4.436;2023-07-29T06:49:05;2.28;;;1.27;;
10100;SDS011;5090;51.258;4.436;2023-07-29T06:51:32;1.65;;;1.20;;
10100;SDS011;5090;51.258;4.436;2023-07-29T06:54:01;3.30;;;1.40;;
10100;SDS011;5090;51.258;4.436;2023-07-29T06:56:29;2.15;;;1.10;;
10100;SDS011;5090;51.258;4.436;2023-07-29T06:58:57;2.03;;;1.05;;
10100;SDS011;5090;51.258;4.436;2023-07-29T07:01:25;1.20;;;1.10;;
10100;SDS011;5090;51.258;4.436;2023-07-29T07:03:53;2.83;;;1.45;;
10100;SDS011;5090;51.258;4.436;2023-07-29T07:06:22;1.50;;;1.00;;
10100;SDS011;5090;51.258;4.436;2023-07-29T07:08:50;3.30;;;1.33;;
10100;SDS011;5090;51.258;4.436;2023-07-29T07:11:18;5.15;;;1.75;;
10100;SDS011;5090;51.258;4.436;2023-07-29T07:13:46;2.67;;;1.12;;
10100;SDS011;5090;51.258;4.436;2023-07-29T07:16:14;4.03;;;0.90;;
10100;SDS011;5090;51.258;4.436;2023-07-29T07:18:43;1.70;;;1.30;;
10100;SDS011;5090;51.258;4.436;2023-07-29T07:21:11;1.92;;;1.10;;
10100;SDS011;5090;51.258;4.436;2023-07-29T07:23:39;2.65;;;0.90;;
10100;SDS011;5090;51.258;4.436;2023-07-29T07:26:07;0.90;;;0.88;;
10100;SDS011;5090;51.258;4.436;2023-07-29T07:28:36;2.10;;;1.30;;
10100;SDS011;5090;51.258;4.436;2023-07-29T07:31:04;2.53;;;1.12;;
10100;SDS011;5090;51.258;4.436;2023-07-29T07:33:33;1.10;;;0.98;;
10100;SDS011;5090;51.258;4.436;2023-07-29T07:36:01;2.03;;;1.17;;
10100;SDS011;5090;51.258;4.436;2023-07-29T07:38:29;1.15;;;1.05;;
10100;SDS011;5090;51.258;4.436;2023-07-29T07:40:58;1.45;;;1.02;;
10100;SDS011;5090;51.258;4.436;2023-07-29T07:43:26;1.92;;;1.10;;
10100;SDS011;5090;51.258;4.436;2023-07-29T07:45:58;2.97;;;1.00;;
10100;SDS011;5090;51.258;4.436;2023-07-29T07:48:25;4.68;;;1.30;;
10100;SDS011;5090;51.258;4.436;2023-07-29T07:50:53;3.28;;;1.33;;
10100;SDS011;5090;51.258;4.436;2023-07-29T07:53:22;1.67;;;1.10;;
10100;SDS011;5090;51.258;4.436;2023-07-29T07:55:50;1.80;;;0.80;;
10100;SDS011;5090;51.258;4.436;2023-07-29T07:58:18;2.92;;;1.00;;
10100;SDS011;5090;51.258;4.436;2023-07-29T08:00:46;2.53;;;1.10;;
10100;SDS011;5090;51.258;4.436;2023-07-29T08:03:14;1.73;;;1.12;;
10100;SDS011;5090;51.258;4.436;2023-07-29T08:05:43;2.80;;;0.98;;
10100;SDS011;5090;51.258;4.436;2023-07-29T08:08:11;1.00;;;0.90;;
10100;SDS011;5090;51.258;4.436;2023-07-29T08:10:39;1.58;;;0.85;;
10100;SDS011;5090;51.258;4.436;2023-07-29T08:13:07;1.55;;;0.90;;
10100;SDS011;5090;51.258;4.436;2023-07-29T08:15:35;4.40;;;1.00;;
10100;SDS011;5090;51.258;4.436;2023-07-29T08:18:04;2.05;;;1.05;;
10100;SDS011;5090;51.258;4.436;2023-07-29T08:20:32;1.52;;;1.10;;
10100;SDS011;5090;51.258;4.436;2023-07-29T08:23:00;2.62;;;1.35;;
10100;SDS011;5090;51.258;4.436;2023-07-29T08:25:28;1.83;;;1.05;;
10100;SDS011;5090;51.258;4.436;2023-07-29T08:28:00;0.88;;;0.88;;
10100;SDS011;5090;51.258;4.436;2023-07-29T08:30:29;1.80;;;0.85;;
10100;SDS011;5090;51.258;4.436;2023-07-29T08:32:57;1.05;;;0.70;;
10100;SDS011;5090;51.258;4.436;2023-07-29T08:35:25;1.08;;;0.77;;
10100;SDS011;5090;51.258;4.436;2023-07-29T08:37:53;0.95;;;0.85;;
10100;SDS011;5090;51.258;4.436;2023-07-29T08:40:23;0.75;;;0.60;;
10100;SDS011;5090;51.258;4.436;2023-07-29T08:42:50;1.05;;;0.82;;
10100;SDS011;5090;51.258;4.436;2023-07-29T08:45:18;1.60;;;0.68;;
10100;SDS011;5090;51.258;4.436;2023-07-29T08:47:46;2.78;;;0.90;;
10100;SDS011;5090;51.258;4.436;2023-07-29T08:50:14;1.00;;;0.80;;
10100;SDS011;5090;51.258;4.436;2023-07-29T08:52:43;1.87;;;0.70;;
10100;SDS011;5090;51.258;4.436;2023-07-29T08:55:11;3.12;;;1.12;;
10100;SDS011;5090;51.258;4.436;2023-07-29T08:57:39;1.33;;;1.17;;
10100;SDS011;5090;51.258;4.436;2023-07-29T09:00:07;1.77;;;0.88;;
10100;SDS011;5090;51.258;4.436;2023-07-29T09:02:36;0.95;;;0.77;;
10100;SDS011;5090;51.258;4.436;2023-07-29T09:05:04;1.75;;;1.00;;
10100;SDS011;5090;51.258;4.436;2023-07-29T09:07:32;2.03;;;0.93;;
10100;SDS011;5090;51.258;4.436;2023-07-29T09:10:01;2.45;;;1.00;;
10100;SDS011;5090;51.258;4.436;2023-07-29T09:12:30;1.83;;;0.82;;
10100;SDS011;5090;51.258;4.436;2023-07-29T09:14:58;1.75;;;0.90;;
10100;SDS011;5090;51.258;4.436;2023-07-29T09:17:26;1.10;;;0.93;;
10100;SDS011;5090;51.258;4.436;2023-07-29T09:19:54;1.33;;;0.90;;
10100;SDS011;5090;51.258;4.436;2023-07-29T09:22:22;1.15;;;0.73;;
10100;SDS011;5090;51.258;4.436;2023-07-29T09:24:51;1.75;;;0.90;;
10100;SDS011;5090;51.258;4.436;2023-07-29T09:27:23;1.98;;;0.82;;
10100;SDS011;5090;51.258;4.436;2023-07-29T09:29:51;2.67;;;0.70;;
10100;SDS011;5090;51.258;4.436;2023-07-29T09:32:21;1.42;;;0.85;;
10100;SDS011;5090;51.258;4.436;2023-07-29T09:34:48;3.70;;;1.27;;
10100;SDS011;5090;51.258;4.436;2023-07-29T09:37:19;2.00;;;1.10;;
10100;SDS011;5090;51.258;4.436;2023-07-29T09:39:46;1.98;;;1.00;;
10100;SDS011;5090;51.258;4.436;2023-07-29T09:42:19;1.48;;;0.88;;
10100;SDS011;5090;51.258;4.436;2023-07-29T09:44:48;4.55;;;0.98;;
10100;SDS011;5090;51.258;4.436;2023-07-29T09:47:19;2.10;;;0.90;;
10100;SDS011;5090;51.258;4.436;2023-07-29T09:49:46;3.35;;;1.12;;
10100;SDS011;5090;51.258;4.436;2023-07-29T09:52:15;2.12;;;1.20;;
10100;SDS011;5090;51.258;4.436;2023-07-29T09:54:43;1.75;;;0.95;;
10100;SDS011;5090;51.258;4.436;2023-07-29T09:57:11;1.58;;;0.98;;
10100;SDS011;5090;51.258;4.436;2023-07-29T09:59:39;2.90;;;1.10;;
10100;SDS011;5090;51.258;4.436;2023-07-29T10:02:12;4.95;;;1.10;;
10100;SDS011;5090;51.258;4.436;2023-07-29T10:04:37;4.82;;;1.05;;
10100;SDS011;5090;51.258;4.436;2023-07-29T10:07:05;1.85;;;1.25;;
10100;SDS011;5090;51.258;4.436;2023-07-29T10:09:34;3.10;;;1.20;;
10100;SDS011;5090;51.258;4.436;2023-07-29T10:12:02;2.60;;;1.30;;
10100;SDS011;5090;51.258;4.436;2023-07-29T10:14:30;1.05;;;0.90;;
10100;SDS011;5090;51.258;4.436;2023-07-29T10:16:59;1.73;;;1.15;;
10100;SDS011;5090;51.258;4.436;2023-07-29T10:19:27;1.00;;;0.90;;
10100;SDS011;5090;51.258;4.436;2023-07-29T10:21:55;1.98;;;1.10;;
10100;SDS011;5090;51.258;4.436;2023-07-29T10:24:24;2.15;;;1.20;;
10100;SDS011;5090;51.258;4.436;2023-07-29T10:26:51;1.30;;;1.05;;
10100;SDS011;5090;51.258;4.436;2023-07-29T10:29:20;2.65;;;1.15;;
10100;SDS011;5090;51.258;4.436;2023-07-29T10:31:50;1.27;;;1.17;;
10100;SDS011;5090;51.258;4.436;2023-07-29T10:34:17;2.12;;;1.05;;
10100;SDS011;5090;51.258;4.436;2023-07-29T10:36:45;1.73;;;1.20;;
10100;SDS011;5090;51.258;4.436;2023-07-29T10:39:13;2.55;;;1.50;;
10100;SDS011;5090;51.258;4.436;2023-07-29T10:46:50;1.55;;;1.02;;
10100;SDS011;5090;51.258;4.436;2023-07-29T10:49:18;1.52;;;1.10;;
10100;SDS011;5090;51.258;4.436;2023-07-29T10:51:47;2.37;;;1.20;;
10100;SDS011;5090;51.258;4.436;2023-07-29T10:54:15;1.25;;;1.10;;
10100;SDS011;5090;51.258;4.436;2023-07-29T10:56:46;0.95;;;0.95;;
10100;SDS011;5090;51.258;4.436;2023-07-29T11:01:57;1.52;;;1.12;;
10100;SDS011;5090;51.258;4.436;2023-07-29T11:04:23;4.97;;;1.80;;
10100;SDS011;5090;51.258;4.436;2023-07-29T11:12:05;5.87;;;2.65;;
10100;SDS011;5090;51.258;4.436;2023-07-29T11:14:33;4.15;;;2.55;;
10100;SDS011;5090;51.258;4.436;2023-07-29T11:17:01;5.12;;;2.80;;
10100;SDS011;5090;51.258;4.436;2023-07-29T11:19:29;6.12;;;2.75;;
10100;SDS011;5090;51.258;4.436;2023-07-29T11:21:57;4.93;;;2.47;;
10100;SDS011;5090;51.258;4.436;2023-07-29T11:24:25;9.35;;;2.75;;
10100;SDS011;5090;51.258;4.436;2023-07-29T11:26:54;9.95;;;3.37;;
10100;SDS011;5090;51.258;4.436;2023-07-29T11:29:22;6.97;;;3.03;;
10100;SDS011;5090;51.258;4.436;2023-07-29T11:31:50;7.35;;;2.62;;
10100;SDS011;5090;51.258;4.436;2023-07-29T11:34:27;4.28;;;2.33;;
10100;SDS011;5090;51.258;4.436;2023-07-29T11:36:46;5.47;;;1.90;;
10100;SDS011;5090;51.258;4.436;2023-07-29T11:39:15;4.68;;;2.03;;
10100;SDS011;5090;51.258;4.436;2023-07-29T11:41:43;4.68;;;2.45;;
10100;SDS011;5090;51.258;4.436;2023-07-29T11:44:16;3.90;;;2.15;;
10100;SDS011;5090;51.258;4.436;2023-07-29T11:46:39;3.20;;;2.53;;
10100;SDS011;5090;51.258;4.436;2023-07-29T11:49:07;3.87;;;2.85;;
10100;SDS011;5090;51.258;4.436;2023-07-29T11:51:36;5.57;;;3.45;;
10100;SDS011;5090;51.258;4.436;2023-07-29T11:54:04;3.22;;;2.92;;
10100;SDS011;5090;51.258;4.436;2023-07-29T11:56:32;7.75;;;3.62;;
10100;SDS011;5090;51.258;4.436;2023-07-29T11:59:01;4.62;;;4.15;;
10100;SDS011;5090;51.258;4.436;2023-07-29T12:01:28;5.37;;;3.92;;
10100;SDS011;5090;51.258;4.436;2023-07-29T12:03:57;8.43;;;4.95;;
10100;SDS011;5090;51.258;4.436;2023-07-29T12:06:25;5.40;;;4.85;;
10100;SDS011;5090;51.258;4.436;2023-07-29T12:08:53;6.37;;;5.80;;
10100;SDS011;5090;51.258;4.436;2023-07-29T12:11:21;7.50;;;5.62;;
10100;SDS011;5090;51.258;4.436;2023-07-29T12:13:50;5.60;;;4.32;;
10100;SDS011;5090;51.258;4.436;2023-07-29T12:16:18;7.15;;;4.40;;
10100;SDS011;5090;51.258;4.436;2023-07-29T12:18:46;5.35;;;3.85;;
10100;SDS011;5090;51.258;4.436;2023-07-29T12:21:14;3.35;;;3.05;;
10100;SDS011;5090;51.258;4.436;2023-07-29T12:23:42;4.18;;;2.47;;
10100;SDS011;5090;51.258;4.436;2023-07-29T12:26:11;1.92;;;1.60;;
10100;SDS011;5090;51.258;4.436;2023-07-29T12:28:39;5.37;;;1.55;;
10100;SDS011;5090;51.258;4.436;2023-07-29T12:31:12;1.17;;;1.10;;
10100;SDS011;5090;51.258;4.436;2023-07-29T12:33:40;2.62;;;1.52;;
10100;SDS011;5090;51.258;4.436;2023-07-29T12:36:09;1.73;;;1.25;;
10100;SDS011;5090;51.258;4.436;2023-07-29T12:38:37;1.05;;;0.95;;
10100;SDS011;5090;51.258;4.436;2023-07-29T12:41:05;1.77;;;1.10;;
10100;SDS011;5090;51.258;4.436;2023-07-29T12:43:34;2.10;;;1.00;;
10100;SDS011;5090;51.258;4.436;2023-07-29T12:46:02;1.27;;;1.17;;
10100;SDS011;5090;51.258;4.436;2023-07-29T12:48:30;1.35;;;1.00;;
10100;SDS011;5090;51.258;4.436;2023-07-29T12:50:58;2.67;;;1.05;;
10100;SDS011;5090;51.258;4.436;2023-07-29T12:53:26;2.15;;;1.00;;
10100;SDS011;5090;51.258;4.436;2023-07-29T12:55:55;2.35;;;1.25;;
10100;SDS011;5090;51.258;4.436;2023-07-29T12:58:23;1.12;;;1.05;;
10100;SDS011;5090;51.258;4.436;2023-07-29T13:00:51;1.73;;;1.20;;
10100;SDS011;5090;51.258;4.436;2023-07-29T13:03:19;3.28;;;1.10;;
10100;SDS011;5090;51.258;4.436;2023-07-29T13:05:48;2.53;;;1.02;;
10100;SDS011;5090;51.258;4.436;2023-07-29T13:08:16;1.37;;;0.90;;
10100;SDS011;5090;51.258;4.436;2023-07-29T13:10:44;2.58;;;1.35;;
10100;SDS011;5090;51.258;4.436;2023-07-29T13:13:12;2.80;;;1.33;;
10100;SDS011;5090;51.258;4.436;2023-07-29T13:15:45;2.37;;;1.10;;
10100;SDS011;5090;51.258;4.436;2023-07-29T13:18:13;3.10;;;1.02;;
10100;SDS011;5090;51.258;4.436;2023-07-29T13:20:41;4.20;;;1.20;;
10100;SDS011;5090;51.258;4.436;2023-07-29T13:23:09;2.45;;;1.30;;
10100;SDS011;5090;51.258;4.436;2023-07-29T13:25:38;2.87;;;0.90;;
10100;SDS011;5090;51.258;4.436;2023-07-29T13:28:06;2.22;;;1.05;;
10100;SDS011;5090;51.258;4.436;2023-07-29T13:30:34;1.35;;;1.00;;
10100;SDS011;5090;51.258;4.436;2023-07-29T13:33:02;1.58;;;1.10;;
10100;SDS011;5090;51.258;4.436;2023-07-29T13:35:31;2.05;;;1.45;;
10100;SDS011;5090;51.258;4.436;2023-07-29T13:37:59;1.23;;;1.12;;
10100;SDS011;5090;51.258;4.436;2023-07-29T13:40:27;1.92;;;1.10;;
10100;SDS011;5090;51.258;4.436;2023-07-29T13:42:55;2.30;;;1.25;;
10100;SDS011;5090;51.258;4.436;2023-07-29T13:45:24;2.15;;;1.00;;
10100;SDS011;5090;51.258;4.436;2023-07-29T13:47:52;2.60;;;1.30;;
10100;SDS011;5090;51.258;4.436;2023-07-29T13:50:20;1.83;;;1.00;;
10100;SDS011;5090;51.258;4.436;2023-07-29T13:52:48;1.12;;;1.02;;
10100;SDS011;5090;51.258;4.436;2023-07-29T13:55:16;2.33;;;1.25;;
10100;SDS011;5090;51.258;4.436;2023-07-29T13:57:45;4.30;;;1.10;;
10100;SDS011;5090;51.258;4.436;2023-07-29T14:00:13;1.55;;;1.08;;
10100;SDS011;5090;51.258;4.436;2023-07-29T14:02:41;1.83;;;1.10;;
10100;SDS011;5090;51.258;4.436;2023-07-29T14:05:09;2.30;;;1.48;;
10100;SDS011;5090;51.258;4.436;2023-07-29T14:07:38;1.42;;;1.08;;
10100;SDS011;5090;51.258;4.436;2023-07-29T14:10:06;2.10;;;1.50;;
10100;SDS011;5090;51.258;4.436;2023-07-29T14:12:34;1.58;;;1.10;;
10100;SDS011;5090;51.258;4.436;2023-07-29T14:15:03;1.02;;;0.95;;
10100;SDS011;5090;51.258;4.436;2023-07-29T14:17:31;2.00;;;1.40;;
10100;SDS011;5090;51.258;4.436;2023-07-29T14:20:00;2.92;;;1.35;;
10100;SDS011;5090;51.258;4.436;2023-07-29T14:22:28;3.17;;;1.12;;
10100;SDS011;5090;51.258;4.436;2023-07-29T14:24:56;2.53;;;1.17;;
10100;SDS011;5090;51.258;4.436;2023-07-29T14:27:24;1.02;;;0.90;;
10100;SDS011;5090;51.258;4.436;2023-07-29T14:29:53;2.42;;;0.90;;
10100;SDS011;5090;51.258;4.436;2023-07-29T14:32:21;1.62;;;1.12;;
10100;SDS011;5090;51.258;4.436;2023-07-29T14:34:49;1.67;;;1.20;;
10100;SDS011;5090;51.258;4.436;2023-07-29T14:37:17;1.23;;;0.90;;
10100;SDS011;5090;51.258;4.436;2023-07-29T14:39:46;3.42;;;1.10;;
10100;SDS011;5090;51.258;4.436;2023-07-29T14:42:15;1.77;;;1.00;;
10100;SDS011;5090;51.258;4.436;2023-07-29T14:44:43;6.93;;;1.30;;
10100;SDS011;5090;51.258;4.436;2023-07-29T14:47:11;1.10;;;0.98;;
10100;SDS011;5090;51.258;4.436;2023-07-29T14:49:43;1.52;;;1.00;;
10100;SDS011;5090;51.258;4.436;2023-07-29T14:52:11;1.85;;;0.90;;
10100;SDS011;5090;51.258;4.436;2023-07-29T14:54:40;2.17;;;1.00;;
10100;SDS011;5090;51.258;4.436;2023-07-29T14:57:09;4.32;;;1.00;;
10100;SDS011;5090;51.258;4.436;2023-07-29T14:59:36;1.20;;;1.10;;
10100;SDS011;5090;51.258;4.436;2023-07-29T15:02:04;1.48;;;0.98;;
10100;SDS011;5090;51.258;4.436;2023-07-29T15:04:33;1.65;;;0.93;;
10100;SDS011;5090;51.258;4.436;2023-07-29T15:07:02;1.60;;;1.00;;
10100;SDS011;5090;51.258;4.436;2023-07-29T15:09:29;2.17;;;0.95;;
10100;SDS011;5090;51.258;4.436;2023-07-29T15:11:59;0.98;;;0.73;;
10100;SDS011;5090;51.258;4.436;2023-07-29T15:14:27;0.68;;;0.60;;
10100;SDS011;5090;51.258;4.436;2023-07-29T15:16:56;0.88;;;0.60;;
10100;SDS011;5090;51.258;4.436;2023-07-29T15:19:24;0.65;;;0.62;;